Fort Worth - NOAA's Hourly Summary for Friday, July 6, 2018
Hour Temp
(f)
RH
(%)
Solar Rad.
(MJ/m2)
Rainfall
(in)
Wind
(mph)
7/6/2018 12:00 AM 86 58 0 0 5.63
7/6/2018 1:00 AM 85 61 0 0 4.49
7/6/2018 2:00 AM 83 63 0 0 1.41
7/6/2018 3:00 AM 83 66 0 0 3.01
7/6/2018 4:00 AM 81 70 0 0 3.72
7/6/2018 5:00 AM 80 74 0 0 4.22
7/6/2018 6:00 AM 79 77 0.02 0 4.47
7/6/2018 7:00 AM 79 77 0.24 0 5.54
7/6/2018 8:00 AM 82 71 0.91 0 5.75
7/6/2018 9:00 AM 85 65 1.59 0 4.61
7/6/2018 10:00 AM 88 58 2.2 0 5.06
7/6/2018 11:00 AM 90 52 2.32 0 5.64
7/6/2018 12:00 PM 92 47 2.77 0 8.46
7/6/2018 1:00 PM 93 42 2.44 0 7.11
7/6/2018 2:00 PM 95 38 3.07 0 6.75
7/6/2018 3:00 PM 95 37 2.67 0 9.12
7/6/2018 4:00 PM 92 43 1.71 0 12.66
7/6/2018 5:00 PM 86 52 0.45 0 9.84
7/6/2018 6:00 PM 87 51 0.73 0 5.7
7/6/2018 7:00 PM 86 53 0.49 0 7.9
7/6/2018 8:00 PM 85 56 0.07 0 6.52
7/6/2018 9:00 PM 84 58 0 0 7.71
7/6/2018 10:00 PM 82 68 0 0 5.76
7/6/2018 11:00 PM 81 70 0 0 2.44
Data Summary 85 58 21.68 0.00 5.98